Time;durP1;ratioP1;P1;durP2;ratioP2;P2;SDS_P1;SDS_P2;PMS_P1;PMS_P2;Temp;Humidity;BMP_temperature;BMP_pressure;BME280_temperature;BME280_humidity;BME280_pressure;Samples;Min_cycle;Max_cycle;Signal;HPM_P1;HPM_P2
2021/03/14 00:01:13;;;;;;;6.10;1.10;;;;;;;4.67;69.53;98690.66;124213;1112;26070;-59
2021/03/14 00:03:42;;;;;;;7.17;1.10;;;;;;;4.64;69.62;98678.55;124558;1111;22941;-62
2021/03/14 00:06:11;;;;;;;5.85;1.00;;;;;;;4.63;69.62;98677.03;124476;1111;23222;-59
2021/03/14 00:08:40;;;;;;;6.73;1.20;;;;;;;4.63;69.40;98679.80;124390;1112;24567;-59
2021/03/14 00:11:10;;;;;;;8.47;1.50;;;;;;;4.63;69.84;98670.73;124272;1111;23216;-59
2021/03/14 00:13:40;;;;;;;7.62;1.30;;;;;;;4.63;69.80;98679.03;124446;1111;23091;-60
2021/03/14 00:16:10;;;;;;;8.30;1.20;;;;;;;4.63;69.52;98670.73;124407;1112;26473;-60
2021/03/14 00:18:41;;;;;;;7.27;1.20;;;;;;;4.62;69.61;98667.20;124340;1112;23011;-60
2021/03/14 00:21:11;;;;;;;7.37;0.83;;;;;;;4.61;69.68;98662.92;124354;1112;23004;-60
2021/03/14 00:23:40;;;;;;;5.37;0.90;;;;;;;4.62;69.73;98669.20;124428;1111;23083;-58
2021/03/14 00:26:09;;;;;;;3.60;0.70;;;;;;;4.63;69.53;98662.45;124365;1112;23020;-59
2021/03/14 00:28:38;;;;;;;7.83;0.90;;;;;;;4.63;69.59;98667.97;124532;1113;27524;-59
2021/03/14 00:31:08;;;;;;;5.10;0.80;;;;;;;4.62;69.75;98658.14;124322;1111;23227;-60
2021/03/14 00:33:37;;;;;;;6.20;0.90;;;;;;;4.63;69.67;98665.98;124380;1112;22957;-59
2021/03/14 00:36:07;;;;;;;4.93;0.90;;;;;;;4.63;69.54;98665.20;124288;1111;23084;-59
2021/03/14 00:38:36;;;;;;;3.20;0.80;;;;;;;4.62;69.86;98658.14;124426;1111;22993;-60
2021/03/14 00:41:05;;;;;;;4.10;0.70;;;;;;;4.61;69.98;98665.69;124341;1112;24671;-59
2021/03/14 00:43:34;;;;;;;11.23;0.90;;;;;;;4.61;70.12;98659.39;124342;1112;23217;-59
2021/03/14 00:46:04;;;;;;;5.03;0.77;;;;;;;4.61;69.96;98662.92;124413;1113;23090;-61
2021/03/14 00:48:33;;;;;;;6.92;0.90;;;;;;;4.61;69.96;98653.87;124398;1111;23068;-59
2021/03/14 00:51:02;;;;;;;5.75;1.00;;;;;;;4.60;69.87;98663.38;124337;1111;23024;-60
2021/03/14 00:53:32;;;;;;;11.77;1.37;;;;;;;4.59;70.03;98659.84;124534;1111;23067;-60
2021/03/14 00:56:01;;;;;;;7.20;1.10;;;;;;;4.58;70.00;98663.09;124373;1112;23007;-59
2021/03/14 00:58:30;;;;;;;7.30;1.23;;;;;;;4.57;69.77;98665.09;124458;1112;27371;-60
2021/03/14 01:00:59;;;;;;;7.00;1.10;;;;;;;4.57;70.14;98665.09;124775;1112;23094;-59
2021/03/14 01:03:28;;;;;;;5.50;1.10;;;;;;;4.58;69.73;98652.81;124816;1111;23071;-61
2021/03/14 01:05:57;;;;;;;4.97;1.10;;;;;;;4.57;69.94;98653.30;124333;1111;23460;-59
2021/03/14 01:08:27;;;;;;;6.93;1.00;;;;;;;4.56;69.93;98652.53;124311;1112;23017;-59
2021/03/14 01:10:56;;;;;;;7.83;1.20;;;;;;;4.54;69.69;98646.72;124300;1112;23017;-59
2021/03/14 01:13:26;;;;;;;6.35;1.00;;;;;;;4.52;69.82;98648.42;124428;1112;25656;-59
2021/03/14 01:15:55;;;;;;;6.17;0.90;;;;;;;4.50;69.76;98656.43;124667;1111;23072;-59
2021/03/14 01:18:24;;;;;;;7.17;1.10;;;;;;;4.47;70.30;98649.11;124425;1113;23219;-60
2021/03/14 01:20:53;;;;;;;7.60;1.10;;;;;;;4.44;70.27;98652.81;124527;1112;23050;-60
2021/03/14 01:23:23;;;;;;;6.80;1.13;;;;;;;4.41;69.75;98653.74;124216;1111;23248;-59
2021/03/14 01:25:52;;;;;;;5.73;1.00;;;;;;;4.39;69.80;98658.98;124230;1112;23071;-59
2021/03/14 01:28:22;;;;;;;4.70;0.93;;;;;;;4.37;69.97;98664.99;124323;1112;23758;-59
2021/03/14 01:30:51;;;;;;;8.40;1.20;;;;;;;4.34;70.04;98657.67;124308;1111;23071;-59
2021/03/14 01:33:20;;;;;;;4.57;0.90;;;;;;;4.32;70.13;98653.85;124416;1111;23027;-58
2021/03/14 01:35:49;;;;;;;8.20;1.10;;;;;;;4.29;70.08;98674.89;124314;1111;23080;-57
2021/03/14 01:38:19;;;;;;;7.80;1.20;;;;;;;4.30;69.95;98681.19;124397;1111;23011;-58
2021/03/14 01:40:48;;;;;;;7.20;1.30;;;;;;;4.27;70.36;98677.37;124429;1113;28014;-58
2021/03/14 01:43:18;;;;;;;12.77;1.50;;;;;;;4.25;70.39;98670.78;124677;1112;23017;-59
2021/03/14 01:45:46;;;;;;;8.85;1.25;;;;;;;4.23;70.07;98679.55;124421;1112;27444;-59
2021/03/14 01:48:20;;;;;;;7.93;1.20;;;;;;;4.21;70.69;98679.27;124358;1112;26746;-59
2021/03/14 01:50:51;;;;;;;9.30;0.97;;;;;;;4.21;70.92;98675.73;124517;1112;27342;-59
2021/03/14 01:53:19;;;;;;;;;;;;;;;4.20;70.12;98672.20;124578;1111;23072;-59
2021/03/14 01:55:49;;;;;;;4.40;0.80;;;;;;;4.20;70.69;98674.22;124416;1113;26825;-59
2021/03/14 01:58:18;;;;;;;6.33;1.10;;;;;;;4.19;70.40;98667.93;124456;1110;22993;-59
2021/03/14 02:00:48;;;;;;;8.23;1.00;;;;;;;4.20;70.41;98674.22;124451;1112;27973;-59
2021/03/14 02:03:18;;;;;;;10.00;1.90;;;;;;;4.19;70.47;98669.92;124561;1112;27553;-59
2021/03/14 02:05:47;;;;;;;12.57;2.47;;;;;;;4.19;71.02;98670.69;124535;1113;24320;-59
2021/03/14 02:08:17;;;;;;;13.53;2.07;;;;;;;4.20;70.85;98668.70;124376;1112;23048;-59
2021/03/14 02:10:49;;;;;;;8.70;1.57;;;;;;;4.20;70.98;98676.98;124384;1111;23047;-59
2021/03/14 02:13:22;;;;;;;4.97;0.90;;;;;;;4.21;70.87;98675.73;124310;1112;23074;-59
2021/03/14 02:15:56;;;;;;;6.87;1.00;;;;;;;4.20;70.42;98671.46;124402;1113;23014;-57
2021/03/14 02:18:27;;;;;;;5.03;1.10;;;;;;;4.19;70.84;98676.22;124217;1111;24763;-59
2021/03/14 02:20:57;;;;;;;8.83;1.27;;;;;;;4.19;70.75;98670.69;124434;1112;23092;-59
2021/03/14 02:23:34;;;;;;;3.47;0.70;;;;;;;4.19;71.08;98675.45;124403;1111;27371;-58
2021/03/14 02:26:09;;;;;;;4.23;0.90;;;;;;;4.18;71.13;98676.70;124224;1111;23145;-59
2021/03/14 02:28:40;;;;;;;3.70;0.80;;;;;;;4.17;71.02;98673.16;124316;1112;27203;-59
2021/03/14 02:31:11;;;;;;;4.73;0.90;;;;;;;4.15;70.85;98678.41;124324;1112;23237;-59
2021/03/14 02:33:44;;;;;;;7.10;0.97;;;;;;;4.15;71.01;98680.39;124522;1112;28533;-57
2021/03/14 02:36:15;;;;;;;5.40;1.03;;;;;;;4.14;70.68;98673.36;124446;1112;23218;-59
2021/03/14 02:38:45;;;;;;;6.87;0.93;;;;;;;4.12;71.03;98686.88;124297;1111;23076;-57
2021/03/14 02:41:14;;;;;;;;;;;;;;;4.11;71.16;98694.39;124324;1111;23573;-59
2021/03/14 02:43:43;;;;;;;3.65;0.80;;;;;;;4.08;71.08;98695.32;124197;1111;21638;-59
2021/03/14 02:46:13;;;;;;;3.20;0.80;;;;;;;4.07;71.30;98697.34;124543;1112;27452;-58
2021/03/14 02:48:43;;;;;;;3.53;0.90;;;;;;;4.06;71.03;98695.80;124331;1112;23619;-59
2021/03/14 02:51:12;;;;;;;8.27;0.80;;;;;;;4.04;71.28;98687.23;124652;1112;23073;-59
2021/03/14 02:53:43;;;;;;;3.70;0.82;;;;;;;4.03;71.50;98693.23;124429;1112;23025;-59
2021/03/14 02:56:13;;;;;;;5.50;0.70;;;;;;;4.00;70.79;98691.40;124471;1112;22990;-59
2021/03/14 02:58:44;;;;;;;6.53;1.10;;;;;;;3.98;71.12;98686.36;124411;1112;23017;-60
2021/03/14 03:01:15;;;;;;;5.83;1.00;;;;;;;3.97;71.05;98686.84;124475;1112;23422;-59
2021/03/14 03:03:44;;;;;;;4.13;0.77;;;;;;;3.96;71.26;98690.81;124456;1111;23072;-59
2021/03/14 03:06:14;;;;;;;3.37;0.83;;;;;;;3.93;71.34;98692.52;124396;1110;23024;-60
2021/03/14 03:08:45;;;;;;;6.27;0.80;;;;;;;3.93;71.59;98691.78;124365;1112;26814;-59
2021/03/14 03:11:17;;;;;;;4.37;1.10;;;;;;;3.91;71.38;98692.23;124279;1111;23060;-59
2021/03/14 03:13:46;;;;;;;4.07;1.00;;;;;;;3.92;71.38;98699.29;124357;1111;23077;-59
2021/03/14 03:16:20;;;;;;;5.00;0.80;;;;;;;3.90;71.47;98704.52;124368;1112;22962;-59
2021/03/14 03:18:51;;;;;;;4.23;0.80;;;;;;;3.91;71.73;98694.98;124319;1112;23222;-59
2021/03/14 03:21:23;;;;;;;5.30;1.00;;;;;;;3.93;71.71;98700.80;124350;1111;23318;-59
2021/03/14 03:23:54;;;;;;;5.13;0.93;;;;;;;3.94;71.32;98698.81;124392;1112;23264;-59
2021/03/14 03:26:24;;;;;;;5.43;0.93;;;;;;;3.93;71.15;98700.80;124431;1112;23022;-61
2021/03/14 03:28:53;;;;;;;4.67;1.17;;;;;;;3.93;71.67;98700.80;124385;1111;23061;-60
2021/03/14 03:31:23;;;;;;;5.17;0.90;;;;;;;3.93;71.61;98706.32;124293;1111;25770;-60
2021/03/14 03:33:52;;;;;;;4.80;1.10;;;;;;;3.94;71.69;98701.57;124366;1111;23155;-60
2021/03/14 03:36:22;;;;;;;5.00;1.10;;;;;;;3.94;71.45;98712.61;124488;1110;23052;-59
2021/03/14 03:38:51;;;;;;;8.40;1.10;;;;;;;3.93;71.71;98714.61;124656;1111;24607;-61
2021/03/14 03:41:22;;;;;;;4.67;1.17;;;;;;;3.91;71.69;98708.05;124602;1112;23067;-59
2021/03/14 03:43:54;;;;;;;6.03;1.30;;;;;;;3.89;71.81;98705.73;124694;1111;23020;-62
2021/03/14 03:46:25;;;;;;;5.87;0.83;;;;;;;3.88;71.74;98695.95;124817;1112;27364;-60
2021/03/14 03:48:54;;;;;;;;;;;;;;;3.88;71.54;98700.70;124756;1112;25956;-59
2021/03/14 03:51:26;;;;;;;5.30;1.03;;;;;;;3.85;71.36;98696.10;124894;1112;21501;-59
2021/03/14 03:53:58;;;;;;;5.20;1.50;;;;;;;3.84;71.44;98695.36;124844;1111;23084;-58
2021/03/14 03:56:28;;;;;;;4.93;0.90;;;;;;;3.83;71.86;98690.29;124706;1112;23215;-59
2021/03/14 03:59:00;;;;;;;6.90;1.30;;;;;;;3.82;71.51;98675.75;124655;1113;22990;-60
2021/03/14 04:01:30;;;;;;;9.80;1.50;;;;;;;3.80;71.52;98683.73;124717;1111;23069;-58
2021/03/14 04:04:02;;;;;;;8.60;1.30;;;;;;;3.78;71.37;98672.41;124756;1112;23039;-59
2021/03/14 04:06:31;;;;;;;6.93;1.40;;;;;;;3.76;71.60;98677.63;124741;1110;23347;-61
2021/03/14 04:09:02;;;;;;;12.28;1.65;;;;;;;3.75;71.46;98680.84;124625;1111;25992;-61
2021/03/14 04:11:30;;;;;;;;;;;;;;;3.75;71.52;98678.08;124832;1112;26425;-58
2021/03/14 04:14:00;;;;;;;7.57;1.10;;;;;;;3.74;71.91;98679.33;124670;1112;22921;-58
2021/03/14 04:16:30;;;;;;;7.92;1.10;;;;;;;3.72;71.38;98666.01;124730;1112;23080;-58
2021/03/14 04:19:01;;;;;;;4.70;0.80;;;;;;;3.72;71.65;98671.53;124847;1112;25669;-58
2021/03/14 04:21:32;;;;;;;5.08;0.80;;;;;;;3.70;71.55;98670.47;124821;1111;27518;-62
2021/03/14 04:24:03;;;;;;;4.93;0.97;;;;;;;3.68;71.84;98676.47;124695;1111;23083;-63
2021/03/14 04:26:33;;;;;;;6.30;1.10;;;;;;;3.69;71.69;98694.53;124712;1110;23021;-61
2021/03/14 04:29:03;;;;;;;7.92;1.20;;;;;;;3.69;72.29;98682.72;124851;1112;23018;-61
2021/03/14 04:31:33;;;;;;;5.78;1.00;;;;;;;3.70;72.20;98684.27;124786;1112;27476;-61
2021/03/14 04:34:03;;;;;;;7.47;1.02;;;;;;;3.70;71.96;98679.52;124800;1111;23070;-59
2021/03/14 04:36:34;;;;;;;5.65;0.93;;;;;;;3.68;72.14;98681.98;124752;1112;23083;-59
2021/03/14 04:39:03;;;;;;;6.40;1.10;;;;;;;3.68;71.63;98679.22;124742;1112;23028;-58
2021/03/14 04:41:33;;;;;;;5.47;1.20;;;;;;;3.67;71.73;98677.69;124746;1111;23093;-61
2021/03/14 04:44:05;;;;;;;4.75;1.05;;;;;;;3.64;71.56;98681.37;124728;1110;24661;-59
2021/03/14 04:46:35;;;;;;;7.33;1.10;;;;;;;3.62;71.87;98678.31;124736;1111;23379;-61
2021/03/14 04:49:05;;;;;;;7.40;1.00;;;;;;;3.60;72.01;98675.27;124798;1110;23083;-59
2021/03/14 04:51:36;;;;;;;4.78;1.00;;;;;;;3.59;72.04;98672.98;124860;1111;23080;-57
2021/03/14 04:54:07;;;;;;;4.47;1.00;;;;;;;3.56;72.05;98677.44;124757;1110;23033;-58
2021/03/14 04:56:37;;;;;;;6.97;1.27;;;;;;;3.56;72.01;98679.45;124701;1112;23007;-60
2021/03/14 04:59:08;;;;;;;;;;;;;;;3.53;72.27;98675.63;124740;1112;22969;-60
2021/03/14 05:01:38;;;;;;;;;;;;;;;3.52;71.89;98682.37;124691;1111;21498;-59
2021/03/14 05:04:11;;;;;;;5.90;1.30;;;;;;;3.51;72.34;98682.84;124750;1110;21532;-59
2021/03/14 05:06:43;;;;;;;7.77;1.10;;;;;;;3.49;72.21;98691.59;124703;1112;23033;-61
2021/03/14 05:09:14;;;;;;;7.70;1.20;;;;;;;3.47;72.33;98702.34;124783;1111;25717;-59
2021/03/14 05:11:44;;;;;;;5.30;0.90;;;;;;;3.47;71.96;98694.06;124657;1110;23072;-61
2021/03/14 05:14:15;;;;;;;4.70;1.00;;;;;;;3.45;72.05;98696.53;124815;1111;26539;-61
2021/03/14 05:16:45;;;;;;;7.53;1.20;;;;;;;3.45;72.08;98702.05;124664;1110;26396;-60
2021/03/14 05:19:16;;;;;;;5.97;1.20;;;;;;;3.45;72.13;98709.55;124684;1111;23153;-59
2021/03/14 05:21:45;;;;;;;5.23;1.30;;;;;;;3.44;72.32;98722.57;124663;1112;23181;-60
2021/03/14 05:24:15;;;;;;;7.30;1.10;;;;;;;3.43;72.44;98712.02;124701;1111;24971;-60
2021/03/14 05:26:45;;;;;;;6.33;1.03;;;;;;;3.43;72.20;98720.29;124807;1112;23088;-60
2021/03/14 05:29:16;;;;;;;5.92;0.88;;;;;;;3.43;72.46;98721.06;124796;1112;23047;-61
2021/03/14 05:31:45;;;;;;;4.10;0.95;;;;;;;3.44;72.57;98717.05;124744;1111;23192;-61
2021/03/14 05:34:17;;;;;;;5.37;1.00;;;;;;;3.45;72.70;98706.80;124705;1111;24475;-59
2021/03/14 05:36:46;;;;;;;9.00;1.10;;;;;;;3.46;72.68;98720.11;124704;1112;23035;-62
2021/03/14 05:39:16;;;;;;;5.20;1.47;;;;;;;3.47;72.08;98726.40;124774;1110;23054;-61
2021/03/14 05:41:45;;;;;;;7.70;1.20;;;;;;;3.47;72.50;98720.87;124795;1112;22976;-60
2021/03/14 05:44:15;;;;;;;6.67;1.00;;;;;;;3.47;72.46;98720.87;124701;1111;24191;-59
2021/03/14 05:46:44;;;;;;;4.23;1.17;;;;;;;3.48;72.67;98722.39;124693;1110;23220;-60
2021/03/14 05:49:13;;;;;;;5.97;1.20;;;;;;;3.49;72.64;98719.19;124714;1111;24818;-61
2021/03/14 05:51:45;;;;;;;5.87;1.30;;;;;;;3.49;72.23;98730.22;124813;1111;22977;-59
2021/03/14 05:54:17;;;;;;;7.53;1.57;;;;;;;3.50;72.28;98726.22;124805;1110;23018;-59
2021/03/14 05:56:48;;;;;;;8.67;1.13;;;;;;;3.53;72.50;98727.28;124496;1111;23594;-61
2021/03/14 05:59:19;;;;;;;10.90;1.70;;;;;;;3.54;72.33;98729.56;124708;1112;27484;-60
2021/03/14 06:01:51;;;;;;;5.63;1.00;;;;;;;3.56;72.40;98738.14;124622;1112;23014;-62
2021/03/14 06:04:21;;;;;;;9.60;1.50;;;;;;;3.58;72.76;98735.67;124703;1110;25498;-59
2021/03/14 06:06:50;;;;;;;7.47;1.33;;;;;;;3.61;72.73;98737.52;125174;1111;23338;-63
2021/03/14 06:09:19;;;;;;;6.73;1.33;;;;;;;3.64;72.21;98733.06;124450;1110;27326;-62
2021/03/14 06:11:48;;;;;;;5.77;1.00;;;;;;;3.68;72.07;98730.89;124909;1110;23549;-62
2021/03/14 06:14:18;;;;;;;7.80;1.13;;;;;;;3.71;72.19;98733.47;124538;1111;23024;-60
2021/03/14 06:16:47;;;;;;;4.63;0.90;;;;;;;3.76;72.11;98738.36;124648;1110;23051;-59
2021/03/14 06:19:16;;;;;;;4.13;1.00;;;;;;;3.82;72.55;98755.03;124533;1112;22988;-61
2021/03/14 06:21:45;;;;;;;4.27;0.90;;;;;;;3.90;72.19;98750.68;124664;1111;23226;-62
2021/03/14 06:24:15;;;;;;;5.23;1.00;;;;;;;3.95;72.24;98745.27;124656;1112;23198;-61
2021/03/14 06:26:46;;;;;;;6.17;1.20;;;;;;;4.03;71.87;98746.44;124648;1110;24406;-59
2021/03/14 06:29:31;;;;;;;6.73;1.00;;;;;;;4.12;71.87;98753.89;124730;1111;26441;-59
2021/03/14 06:32:02;;;;;;;8.73;1.40;;;;;;;4.20;71.37;98754.32;124554;1112;27587;-59
2021/03/14 06:34:33;;;;;;;7.10;1.00;;;;;;;4.28;71.68;98764.55;124959;1112;24665;-59
2021/03/14 06:37:12;;;;;;;6.87;1.00;;;;;;;4.37;71.15;98760.92;124650;1111;23152;-62
2021/03/14 06:39:44;;;;;;;8.53;1.00;;;;;;;4.45;71.38;98765.61;124564;1111;27554;-60
2021/03/14 06:42:31;;;;;;;7.43;1.40;;;;;;;4.53;71.24;98757.73;124543;1111;23148;-60
2021/03/14 06:45:07;;;;;;;5.43;0.97;;;;;;;4.61;71.07;98758.89;124787;1111;23027;-60
2021/03/14 06:47:41;;;;;;;7.05;1.10;;;;;;;4.70;71.17;98758.79;124578;1112;23145;-61
2021/03/14 06:50:32;;;;;;;6.50;0.90;;;;;;;4.76;70.66;98757.66;124703;1110;23249;-63
2021/03/14 06:53:09;;;;;;;6.57;1.00;;;;;;;4.86;70.87;98752.82;124710;1112;23154;-61
2021/03/14 06:55:41;;;;;;;6.67;1.13;;;;;;;4.93;70.59;98746.89;124822;1111;23018;-64
2021/03/14 06:58:25;;;;;;;4.40;0.90;;;;;;;4.99;70.79;98741.48;124651;1112;23027;-61
2021/03/14 07:01:12;;;;;;;7.63;1.10;;;;;;;5.06;70.69;98736.31;124968;1110;23229;-60
2021/03/14 07:03:43;;;;;;;9.17;1.20;;;;;;;5.15;70.23;98735.45;124624;1111;23439;-61
2021/03/14 07:06:23;;;;;;;6.80;1.20;;;;;;;5.21;69.57;98731.55;124568;1111;25435;-62
2021/03/14 07:08:54;;;;;;;8.05;0.90;;;;;;;5.33;69.09;98738.77;124672;1112;23143;-60
2021/03/14 07:11:38;;;;;;;5.93;0.80;;;;;;;5.43;69.18;98759.55;127596;1111;23162;-62
2021/03/14 07:14:11;;;;;;;5.80;1.10;;;;;;;5.55;68.75;98777.84;125874;1112;23084;-62
2021/03/14 07:16:44;;;;;;;6.80;1.00;;;;;;;5.66;68.96;98783.56;124985;1110;24791;-61
2021/03/14 07:19:17;;;;;;;4.63;1.00;;;;;;;5.75;69.14;98800.05;125294;1111;23225;-62
2021/03/14 07:21:56;;;;;;;5.33;0.83;;;;;;;5.85;67.95;98811.81;124884;1111;23344;-63
2021/03/14 07:24:32;;;;;;;7.67;0.80;;;;;;;5.93;67.73;98809.39;124626;1110;26107;-60
2021/03/14 07:27:04;;;;;;;6.60;0.73;;;;;;;6.00;67.88;98818.05;124658;1111;27518;-60
2021/03/14 07:29:34;;;;;;;5.23;1.00;;;;;;;6.04;66.74;98815.84;124763;1111;23011;-60
2021/03/14 07:32:05;;;;;;;5.43;0.83;;;;;;;6.08;66.68;98827.52;124848;1110;23002;-59
2021/03/14 07:34:36;;;;;;;6.60;0.70;;;;;;;6.10;66.42;98838.11;125012;1111;23442;-61
2021/03/14 07:37:06;;;;;;;5.47;0.70;;;;;;;6.15;65.79;98852.02;124711;1110;26107;-60
2021/03/14 07:39:35;;;;;;;3.73;0.60;;;;;;;6.20;65.18;98869.98;124728;1111;23021;-62
2021/03/14 07:42:06;;;;;;;2.97;0.77;;;;;;;6.21;65.82;98882.58;124749;1110;23250;-63
2021/03/14 07:44:36;;;;;;;4.10;0.72;;;;;;;6.22;65.51;98900.74;124746;1111;26467;-60
2021/03/14 07:47:06;;;;;;;6.10;0.80;;;;;;;6.22;65.36;98904.28;124686;1112;27472;-62
2021/03/14 07:49:37;;;;;;;4.77;0.77;;;;;;;6.25;64.75;98914.39;124731;1112;23219;-62
2021/03/14 07:52:11;;;;;;;3.67;0.67;;;;;;;6.28;64.73;98918.98;124689;1112;25904;-62
2021/03/14 07:54:44;;;;;;;2.47;0.80;;;;;;;6.29;64.35;98923.27;124720;1110;23016;-62
2021/03/14 07:57:18;;;;;;;4.77;0.60;;;;;;;6.31;64.52;98923.55;124612;1110;23083;-59
2021/03/14 07:59:48;;;;;;;5.77;0.80;;;;;;;6.32;64.90;98911.23;124766;1112;26040;-59
2021/03/14 08:02:31;;;;;;;5.60;0.95;;;;;;;6.35;63.61;98912.28;124300;1113;23040;-62
2021/03/14 08:05:04;;;;;;;2.55;0.50;;;;;;;6.39;63.68;98912.84;124600;1110;23250;-61
2021/03/14 08:07:49;;;;;;;6.70;0.63;;;;;;;6.43;63.61;98910.63;124886;1110;23333;-61
2021/03/14 08:10:35;;;;;;;4.83;0.60;;;;;;;6.47;62.84;98911.19;124503;1112;26447;-61
2021/03/14 08:13:06;;;;;;;2.97;0.50;;;;;;;6.53;62.92;98915.56;124600;1111;23029;-61
2021/03/14 08:15:36;;;;;;;3.20;0.55;;;;;;;6.59;62.67;98918.41;124845;1111;23004;-63
2021/03/14 08:18:05;;;;;;;2.70;0.45;;;;;;;6.64;62.13;98908.64;124507;1111;23664;-63
2021/03/14 08:20:43;;;;;;;7.00;0.80;;;;;;;6.68;61.65;98914.75;124644;1111;23084;-60
2021/03/14 08:23:16;;;;;;;5.33;0.47;;;;;;;6.71;62.14;98922.84;124588;1112;23052;-61
2021/03/14 08:25:47;;;;;;;5.50;0.60;;;;;;;6.75;61.33;98920.63;124578;1111;23678;-60
2021/03/14 08:28:32;;;;;;;3.97;0.70;;;;;;;6.77;62.42;98934.78;124563;1112;23077;-62
2021/03/14 08:31:03;;;;;;;6.40;0.53;;;;;;;6.81;61.50;98940.11;124577;1112;23026;-59
2021/03/14 08:33:45;;;;;;;;;;;;;;;6.82;60.18;98934.09;124977;1111;23076;-63
2021/03/14 08:36:16;;;;;;;2.20;0.40;;;;;;;6.84;60.26;98951.02;124623;1112;21524;-63
2021/03/14 08:38:48;;;;;;;6.17;0.57;;;;;;;6.87;60.26;98944.48;124502;1110;23005;-60
2021/03/14 08:41:48;;;;;;;3.23;0.43;;;;;;;6.91;60.49;98950.59;124422;1112;25914;-62
2021/03/14 08:44:33;;;;;;;3.40;0.40;;;;;;;6.96;60.29;98957.46;124208;1111;23013;-60
2021/03/14 08:47:07;;;;;;;3.87;0.40;;;;;;;7.01;60.78;98948.45;124563;1112;22972;-60
2021/03/14 08:49:41;;;;;;;2.80;0.50;;;;;;;7.07;59.73;98955.61;124594;1112;23015;-60
2021/03/14 08:52:13;;;;;;;5.30;0.60;;;;;;;7.12;59.53;98949.34;124703;1111;23017;-61
2021/03/14 08:54:44;;;;;;;6.30;0.60;;;;;;;7.16;57.35;98963.77;125066;1113;27673;-63
2021/03/14 08:57:15;;;;;;;3.07;0.50;;;;;;;7.19;58.54;98962.81;124690;1111;26428;-62
2021/03/14 08:59:49;;;;;;;2.90;0.47;;;;;;;7.20;58.43;98969.88;124761;1111;23010;-61
2021/03/14 09:02:26;;;;;;;1.77;0.40;;;;;;;7.25;59.26;98965.64;124967;1111;27801;-58
2021/03/14 09:05:12;;;;;;;5.87;0.47;;;;;;;7.30;58.18;98973.28;124698;1111;23031;-59
2021/03/14 09:07:44;;;;;;;7.27;0.67;;;;;;;7.31;57.77;98986.67;124803;1111;22983;-59
2021/03/14 09:10:18;;;;;;;4.60;0.60;;;;;;;7.31;57.70;98989.45;124958;1111;23126;-59
2021/03/14 09:12:59;;;;;;;3.00;0.43;;;;;;;7.31;58.34;98980.34;124644;1111;27435;-58
2021/03/14 09:15:29;;;;;;;2.97;0.40;;;;;;;7.31;57.47;99003.33;126252;1111;23251;-57
2021/03/14 09:17:59;;;;;;;4.28;0.55;;;;;;;7.31;57.93;98994.23;124843;1112;23132;-58
2021/03/14 09:20:28;;;;;;;;;;;;;;;7.31;57.19;98999.78;124981;1112;23037;-58
2021/03/14 09:23:04;;;;;;;5.13;0.60;;;;;;;7.32;57.27;99002.06;124541;1110;24261;-59
2021/03/14 09:25:33;;;;;;;4.97;0.70;;;;;;;7.33;58.27;99003.60;125082;1112;23021;-57
2021/03/14 09:28:02;;;;;;;4.43;0.67;;;;;;;7.35;56.95;99022.55;124684;1110;24667;-57
2021/03/14 09:30:33;;;;;;;3.87;0.60;;;;;;;7.37;57.44;99008.19;124774;1112;23016;-58
2021/03/14 09:33:04;;;;;;;2.40;0.40;;;;;;;7.40;57.13;99021.09;124825;1112;23073;-59
2021/03/14 09:35:36;;;;;;;4.70;0.80;;;;;;;7.41;56.79;99008.75;124989;1111;23165;-58
2021/03/14 09:38:09;;;;;;;4.47;0.70;;;;;;;7.39;56.07;99014.77;124737;1112;23408;-60
2021/03/14 09:40:39;;;;;;;8.83;0.80;;;;;;;7.40;57.18;99016.30;124689;1111;23018;-58
2021/03/14 09:43:09;;;;;;;;;;;;;;;7.40;57.42;99018.31;124910;1111;24671;-57
2021/03/14 09:45:39;;;;;;;5.00;0.80;;;;;;;7.39;57.21;99017.54;124737;1110;24213;-59
2021/03/14 09:48:14;;;;;;;4.47;0.73;;;;;;;7.42;57.31;99010.26;124608;1112;24148;-58
2021/03/14 09:50:48;;;;;;;5.03;0.60;;;;;;;7.46;58.07;99010.80;124708;1110;25934;-57
2021/03/14 09:53:19;;;;;;;5.60;0.70;;;;;;;7.51;57.62;99008.09;124694;1111;23213;-58
2021/03/14 09:55:50;;;;;;;5.23;0.87;;;;;;;7.58;57.46;99012.45;124739;1112;23074;-58
2021/03/14 09:58:21;;;;;;;8.00;1.00;;;;;;;7.63;57.52;99009.76;124869;1110;23070;-58
2021/03/14 10:00:52;;;;;;;4.27;0.70;;;;;;;7.68;57.52;99016.60;124403;1111;23090;-57
2021/03/14 10:03:24;;;;;;;7.13;0.70;;;;;;;7.72;56.70;99019.92;124336;1112;24667;-58
2021/03/14 10:05:54;;;;;;;3.10;0.50;;;;;;;7.72;56.74;99006.03;124295;1111;23056;-59
2021/03/14 10:08:25;;;;;;;5.37;0.70;;;;;;;7.70;57.06;99006.53;124329;1110;23210;-59
2021/03/14 10:10:57;;;;;;;4.17;0.60;;;;;;;7.73;56.33;99008.34;124286;1111;24308;-58
2021/03/14 10:13:29;;;;;;;6.17;0.60;;;;;;;7.77;56.93;99003.34;124217;1110;23024;-57
2021/03/14 10:16:00;;;;;;;3.57;0.60;;;;;;;7.81;56.70;98998.33;124416;1111;23047;-59
2021/03/14 10:18:30;;;;;;;4.27;0.60;;;;;;;7.90;57.14;99005.73;124425;1111;27422;-60
2021/03/14 10:21:16;;;;;;;2.08;0.50;;;;;;;7.98;56.80;99009.60;124120;1113;24846;-59
2021/03/14 10:23:46;;;;;;;4.33;0.50;;;;;;;8.03;57.26;98992.97;124196;1112;23355;-58
2021/03/14 10:26:16;;;;;;;4.28;0.80;;;;;;;8.11;56.44;99010.73;124099;1112;23235;-59
2021/03/14 10:28:47;;;;;;;3.22;0.62;;;;;;;8.10;55.93;99011.23;124131;1112;22994;-58
2021/03/14 10:31:17;;;;;;;3.50;0.90;;;;;;;8.08;56.35;99010.95;124177;1111;23062;-58
2021/03/14 10:33:47;;;;;;;2.60;0.50;;;;;;;8.06;56.02;99013.46;124327;1113;23068;-58
2021/03/14 10:36:17;;;;;;;2.57;0.50;;;;;;;8.02;55.34;99005.36;124326;1111;23076;-59
2021/03/14 10:38:48;;;;;;;4.17;0.50;;;;;;;8.00;55.05;98998.75;124234;1111;23052;-58
2021/03/14 10:41:20;;;;;;;2.80;0.40;;;;;;;8.02;55.42;99002.58;124329;1111;23023;-58
2021/03/14 10:43:53;;;;;;;1.70;0.50;;;;;;;8.07;55.84;99014.97;124232;1112;23000;-60
2021/03/14 10:46:37;;;;;;;2.37;0.47;;;;;;;8.05;55.93;99003.59;124670;1111;23027;-59
2021/03/14 10:49:08;;;;;;;3.63;0.57;;;;;;;7.96;55.90;99015.66;124294;1112;23164;-58
2021/03/14 10:51:39;;;;;;;3.60;0.70;;;;;;;7.91;56.16;99018.36;124192;1111;23181;-57
2021/03/14 10:54:12;;;;;;;5.20;0.70;;;;;;;7.88;56.17;99002.69;125058;1110;24451;-60
2021/03/14 10:56:45;;;;;;;2.15;0.60;;;;;;;7.85;55.87;99037.77;124562;1111;23635;-61
2021/03/14 10:59:27;;;;;;;3.35;0.60;;;;;;;7.82;56.15;99057.44;125948;1111;26376;-58
2021/03/14 11:02:18;;;;;;;4.03;0.70;;;;;;;7.77;56.92;99036.67;124804;1112;23016;-60
2021/03/14 11:04:53;;;;;;;;;;;;;;;7.80;56.73;99062.72;124173;1112;23287;-59
2021/03/14 11:07:27;;;;;;;4.23;0.80;;;;;;;7.79;56.46;99061.95;128114;1111;21443;-57
2021/03/14 11:10:12;;;;;;;5.93;0.80;;;;;;;7.76;56.59;99074.03;128116;1110;23594;-59
2021/03/14 11:12:43;;;;;;;4.70;0.70;;;;;;;7.70;57.65;99075.21;128107;1110;22840;-58
2021/03/14 11:15:24;;;;;;;1.80;0.60;;;;;;;7.67;57.72;99087.31;128202;1111;23613;-59
2021/03/14 11:17:54;;;;;;;5.00;0.97;;;;;;;7.63;57.98;99081.20;128168;1112;22987;-58
2021/03/14 11:20:25;;;;;;;3.75;0.93;;;;;;;7.68;58.33;99086.81;128141;1111;22853;-58
2021/03/14 11:22:57;;;;;;;4.03;0.80;;;;;;;7.77;58.00;99095.02;128136;1111;23553;-58
2021/03/14 11:25:28;;;;;;;2.03;0.70;;;;;;;7.83;57.64;99103.41;128119;1111;22907;-59
2021/03/14 11:28:00;;;;;;;4.23;0.70;;;;;;;7.81;58.47;99098.34;128161;1111;23799;-60
2021/03/14 11:30:29;;;;;;;2.70;0.70;;;;;;;7.82;58.14;99108.19;128173;1111;22871;-59
2021/03/14 11:32:58;;;;;;;1.42;0.50;;;;;;;7.79;57.18;99095.30;128130;1111;23681;-60
2021/03/14 11:35:27;;;;;;;3.57;0.60;;;;;;;7.69;57.44;99101.48;128147;1111;22992;-58
2021/03/14 11:37:57;;;;;;;3.60;0.90;;;;;;;7.61;58.29;99095.59;128187;1111;23707;-59
2021/03/14 11:40:26;;;;;;;2.30;0.60;;;;;;;7.54;56.98;99112.66;128142;1111;22920;-59
2021/03/14 11:42:55;;;;;;;2.80;0.80;;;;;;;7.50;57.47;99108.55;128128;1111;23003;-59
2021/03/14 11:45:27;;;;;;;4.60;0.80;;;;;;;7.49;57.60;99109.81;125642;1112;23460;-59
2021/03/14 11:47:58;;;;;;;4.20;0.80;;;;;;;7.47;58.23;99115.83;126336;1111;27819;-59
2021/03/14 11:50:28;;;;;;;2.55;0.72;;;;;;;7.44;58.44;99102.16;124187;1110;23023;-57
2021/03/14 11:52:57;;;;;;;3.20;0.70;;;;;;;7.40;58.37;99112.71;125136;1110;23147;-58
2021/03/14 11:55:26;;;;;;;3.80;0.87;;;;;;;7.36;58.79;99118.48;124615;1112;26607;-58
2021/03/14 11:57:55;;;;;;;3.90;0.70;;;;;;;7.32;58.59;99106.81;124453;1110;23059;-59